Time;durP1;ratioP1;P1;durP2;ratioP2;P2;SDS_P1;SDS_P2;PMS_P1;PMS_P2;Temp;Humidity;BMP_temperature;BMP_pressure;BME280_temperature;BME280_humidity;BME280_pressure;Samples;Min_cycle;Max_cycle;Signal;HPM_P1;HPM_P2
2024/02/20 00:00:05;;;;;;;;;;;;;;;7.50;100.00;99561.06;5092292;28;20448;-76
2024/02/20 00:02:30;;;;;;;;;;;;;;;7.53;100.00;99558.31;5102154;28;19916;-75
2024/02/20 00:04:55;;;;;;;;;;;;;;;7.51;100.00;99557.13;5111745;28;19916;-76
2024/02/20 00:07:20;;;;;;;;;;;;;;;7.47;100.00;99557.16;5112889;28;19966;-76
2024/02/20 00:09:47;;;;;;;;;;;;;;;7.46;100.00;99555.56;5108289;28;20400;-79
2024/02/20 00:12:12;;;;;;;;;;;;;;;7.46;100.00;99554.78;5103020;28;20415;-77
2024/02/20 00:14:38;;;;;;;;;;;;;;;7.46;100.00;99560.28;5110840;28;19919;-78
2024/02/20 00:17:04;;;;;;;;;;;;;;;7.44;100.00;99546.13;5103282;28;19917;-78
2024/02/20 00:19:29;;;;;;;;;;;;;;;7.40;100.00;99550.88;5106703;28;19947;-78
2024/02/20 00:21:54;;;;;;;;;;;;;;;7.45;100.00;99550.47;5103698;28;20385;-78
2024/02/20 00:24:19;;;;;;;;;;;;;;;7.49;100.00;99543.78;5109433;28;19955;-77
2024/02/20 00:26:45;;;;;;;;;;;;;;;7.52;100.00;99540.25;5095115;28;19916;-78
2024/02/20 00:29:10;;;;;;;;;;;;;;;7.52;100.00;99543.00;5111957;28;19966;-79
2024/02/20 00:31:36;;;;;;;;;;;;;;;7.51;100.00;99543.38;5113412;28;19916;-78
2024/02/20 00:34:02;;;;;;;;;;;;;;;7.53;100.00;99538.28;5095392;28;19973;-79
2024/02/20 00:36:28;;;;;;;;;;;;;;;7.54;100.00;99540.63;5094547;28;19916;-77
2024/02/20 00:38:53;;;;;;;;;;;;;;;7.53;100.00;99539.06;5096642;28;19924;-79
2024/02/20 00:41:19;;;;;;;;;;;;;;;7.60;100.00;99532.75;5113343;28;19916;-77
2024/02/20 00:43:44;;;;;;;;;;;;;;;7.55;100.00;99525.69;5099348;28;19922;-79
2024/02/20 00:46:17;;;;;;;;;;;;;;;7.58;100.00;99518.63;5103364;28;19923;-80
2024/02/20 00:48:43;;;;;;;;;;;;;;;7.52;100.00;99521.00;5107624;28;19928;-77
2024/02/20 00:51:08;;;;;;;;;;;;;;;7.65;100.00;99524.13;5104190;28;19916;-79
2024/02/20 00:53:34;;;;;;;;;;;;;;;7.69;100.00;99522.13;5096208;28;19916;-79
2024/02/20 00:55:59;;;;;;;;;;;;;;;7.69;100.00;99522.13;5105494;28;19922;-79
2024/02/20 00:58:24;;;;;;;;;;;;;;;7.58;100.00;99515.88;5108418;28;20014;-78
2024/02/20 01:00:51;;;;;;;;;;;;;;;7.65;100.00;99518.63;5103238;28;20305;-77
2024/02/20 01:03:16;;;;;;;;;;;;;;;7.66;100.00;99514.66;5095024;28;19977;-77
2024/02/20 01:05:42;;;;;;;;;;;;;;;7.63;100.00;99510.75;5093660;28;19919;-78
2024/02/20 01:08:08;;;;;;;;;;;;;;;7.66;100.00;99507.19;5093563;28;20010;-78
2024/02/20 01:10:33;;;;;;;;;;;;;;;7.69;100.00;99508.38;5102757;28;19924;-79
2024/02/20 01:13:00;;;;;;;;;;;;;;;7.71;100.00;99511.53;5099222;28;19915;-77
2024/02/20 01:15:25;;;;;;;;;;;;;;;7.63;100.00;99504.47;5113963;28;20697;-78
2024/02/20 01:17:51;;;;;;;;;;;;;;;7.66;100.00;99504.44;5108401;28;19927;-78
2024/02/20 01:20:16;;;;;;;;;;;;;;;7.71;100.00;99500.53;5092262;28;19931;-76
2024/02/20 01:22:41;;;;;;;;;;;;;;;7.69;100.00;99500.91;5097228;28;19926;-77
2024/02/20 01:25:06;;;;;;;;;;;;;;;7.75;100.00;99493.81;5112502;28;19971;-77
2024/02/20 01:27:32;;;;;;;;;;;;;;;7.72;100.00;99496.56;5112280;28;20010;-76
2024/02/20 01:29:58;;;;;;;;;;;;;;;7.76;100.00;99494.63;5102172;28;19919;-79
2024/02/20 01:32:23;;;;;;;;;;;;;;;7.80;100.00;99492.63;5091808;28;19969;-80
2024/02/20 01:34:49;;;;;;;;;;;;;;;7.80;100.00;99489.88;5103020;28;19923;-79
2024/02/20 01:37:14;;;;;;;;;;;;;;;7.81;100.00;99487.91;5108111;28;19920;-78
2024/02/20 01:39:40;;;;;;;;;;;;;;;7.76;100.00;99489.13;5102532;28;19919;-77
2024/02/20 01:42:05;;;;;;;;;;;;;;;7.79;100.00;99485.56;5107815;28;19973;-79
2024/02/20 01:44:31;;;;;;;;;;;;;;;7.80;100.00;99486.34;5102358;28;19916;-79
2024/02/20 01:46:57;;;;;;;;;;;;;;;7.78;100.00;99485.97;5107920;28;19958;-78
2024/02/20 01:49:24;;;;;;;;;;;;;;;7.80;100.00;99481.63;5102287;28;20415;-79
2024/02/20 01:51:49;;;;;;;;;;;;;;;7.82;100.00;99479.25;5112000;28;19927;-78
2024/02/20 01:54:15;;;;;;;;;;;;;;;7.80;100.00;99473.38;5113423;28;19916;-77
2024/02/20 01:56:40;;;;;;;;;;;;;;;7.81;100.00;99474.16;5094296;28;19916;-78
2024/02/20 01:59:05;;;;;;;;;;;;;;;7.80;100.00;99470.63;5102087;28;20501;-77
2024/02/20 02:01:31;;;;;;;;;;;;;;;7.85;100.00;99470.19;5097847;28;19927;-78
2024/02/20 02:03:56;;;;;;;;;;;;;;;7.94;100.00;99467.81;5111658;28;20402;-78
2024/02/20 02:06:31;;;;;;;;;;;;;;;7.92;100.00;99456.41;5112780;28;19916;-76
2024/02/20 02:08:56;;;;;;;;;;;;;;;7.99;100.00;99461.09;5111652;28;19916;-79
2024/02/20 02:11:21;;;;;;;;;;;;;;;7.99;100.00;99463.84;5106801;28;19928;-77
2024/02/20 02:13:47;;;;;;;;;;;;;;;7.98;100.00;99465.81;5091421;28;20308;-79
2024/02/20 02:16:12;;;;;;;;;;;;;;;8.01;100.00;99459.53;5096677;28;20404;-77
2024/02/20 02:18:38;;;;;;;;;;;;;;;8.01;100.00;99462.28;5111676;28;19981;-79
2024/02/20 02:21:04;;;;;;;;;;;;;;;7.99;100.00;99461.91;5098665;28;19923;-79
2024/02/20 02:23:29;;;;;;;;;;;;;;;8.03;100.00;99461.88;5100935;28;19916;-78
2024/02/20 02:25:54;;;;;;;;;;;;;;;8.05;100.00;99465.00;5090436;28;19947;-79
2024/02/20 02:28:20;;;;;;;;;;;;;;;8.00;100.00;99468.19;5091045;28;19923;-79
2024/02/20 02:30:45;;;;;;;;;;;;;;;7.92;100.00;99464.66;5094197;28;20452;-78
2024/02/20 02:33:10;;;;;;;;;;;;;;;7.92;100.00;99467.44;5100901;28;19916;-79
2024/02/20 02:35:35;;;;;;;;;;;;;;;7.89;100.00;99461.94;5107730;28;19953;-78
2024/02/20 02:38:02;;;;;;;;;;;;;;;7.85;100.00;99459.19;5112395;28;20067;-77
2024/02/20 02:40:27;;;;;;;;;;;;;;;7.89;100.00;99462.75;5110345;28;19916;-76
2024/02/20 02:42:52;;;;;;;;;;;;;;;7.89;100.00;99461.94;5102186;28;19964;-77
2024/02/20 02:45:17;;;;;;;;;;;;;;;7.90;100.00;99463.50;5093724;28;19955;-77
2024/02/20 02:47:43;;;;;;;;;;;;;;;7.89;100.00;99464.69;5112304;28;20312;-77
2024/02/20 02:50:08;;;;;;;;;;;;;;;7.89;100.00;99467.44;5094030;28;19916;-77
2024/02/20 02:52:34;;;;;;;;;;;;;;;7.95;100.00;99465.84;5101634;28;20312;-77
2024/02/20 02:54:59;;;;;;;;;;;;;;;7.97;100.00;99464.25;5110141;28;20009;-78
2024/02/20 02:57:25;;;;;;;;;;;;;;;7.92;100.00;99461.91;5101412;28;20301;-76
2024/02/20 02:59:50;;;;;;;;;;;;;;;7.93;100.00;99469.00;5107901;28;20320;-78
2024/02/20 03:02:16;;;;;;;;;;;;;;;7.94;100.00;99467.81;5110953;28;19920;-77
2024/02/20 03:04:42;;;;;;;;;;;;;;;7.93;100.00;99468.22;5107654;28;19927;-79
2024/02/20 03:07:07;;;;;;;;;;;;;;;7.96;100.00;99470.94;5090338;28;19916;-77
2024/02/20 03:09:32;;;;;;;;;;;;;;;8.01;100.00;99470.53;5094815;28;19924;-78
2024/02/20 03:11:58;;;;;;;;;;;;;;;8.02;100.00;99472.09;5110559;28;20423;-78
2024/02/20 03:14:23;;;;;;;;;;;;;;;8.00;100.00;99477.22;5095322;28;19916;-78
2024/02/20 03:16:48;;;;;;;;;;;;;;;7.85;100.00;99472.16;5091343;28;19965;-77
2024/02/20 03:19:14;;;;;;;;;;;;;;;7.88;100.00;99472.16;5092840;28;20316;-76
2024/02/20 03:21:39;;;;;;;;;;;;;;;7.94;100.00;99472.53;5100525;28;19973;-77
2024/02/20 03:24:05;;;;;;;;;;;;;;;7.93;100.00;99474.50;5103527;28;20419;-77
2024/02/20 03:26:30;;;;;;;;;;;;;;;7.91;100.00;99476.84;5100022;28;19927;-77
2024/02/20 03:28:56;;;;;;;;;;;;;;;7.92;100.00;99472.94;5096202;28;19920;-78
2024/02/20 03:31:21;;;;;;;;;;;;;;;7.84;100.00;99476.09;5110226;28;19924;-78
2024/02/20 03:33:46;;;;;;;;;;;;;;;7.81;100.00;99474.94;5096864;28;19934;-78
2024/02/20 03:36:11;;;;;;;;;;;;;;;7.80;100.00;99480.84;5110543;28;20015;-79
2024/02/20 03:38:37;;;;;;;;;;;;;;;7.73;100.00;99485.19;5097783;28;19916;-78
2024/02/20 03:41:02;;;;;;;;;;;;;;;7.74;100.00;99485.97;5110032;28;20384;-78
2024/02/20 03:43:28;;;;;;;;;;;;;;;7.75;100.00;99487.53;5112061;28;19922;-78
2024/02/20 03:45:53;;;;;;;;;;;;;;;7.73;100.00;99487.13;5115221;28;20517;-78
2024/02/20 03:48:19;;;;;;;;;;;;;;;7.74;100.00;99485.97;5114831;28;19916;-79
2024/02/20 03:50:44;;;;;;;;;;;;;;;7.81;100.00;99482.41;5093551;28;20376;-76
2024/02/20 03:53:09;;;;;;;;;;;;;;;7.78;100.00;99486.72;5107855;28;19915;-79
2024/02/20 03:55:36;;;;;;;;;;;;;;;7.81;100.00;99476.91;5107176;28;19970;-77
2024/02/20 03:58:01;;;;;;;;;;;;;;;7.83;100.00;99486.34;5107378;28;20382;-80
2024/02/20 04:00:27;;;;;;;;;;;;;;;7.91;100.00;99493.38;5106995;28;20526;-80
2024/02/20 04:02:56;;;;;;;;;;;;;;;7.92;100.00;99486.69;5093967;28;19924;-79
2024/02/20 04:05:22;;;;;;;;;;;;;;;7.89;100.00;99479.25;5107547;28;19927;-79
2024/02/20 04:07:47;;;;;;;;;;;;;;;7.84;100.00;99481.59;5108307;28;19915;-79
2024/02/20 04:10:13;;;;;;;;;;;;;;;7.87;100.00;99478.84;5113699;27;19926;-75
2024/02/20 04:12:39;;;;;;;;;;;;;;;7.86;100.00;99480.03;5113396;27;19920;-79
2024/02/20 04:15:08;;;;;;;;;;;;;;;7.88;100.00;99479.63;5113807;28;19916;-78
2024/02/20 04:17:34;;;;;;;;;;;;;;;7.91;100.00;99479.59;5113391;28;19912;-80
2024/02/20 04:20:09;;;;;;;;;;;;;;;7.93;100.00;99476.47;5115086;28;19942;-78
2024/02/20 04:22:37;;;;;;;;;;;;;;;7.93;100.00;99479.22;5113567;28;19986;-77
2024/02/20 04:25:02;;;;;;;;;;;;;;;7.93;100.00;99481.97;5113780;28;20320;-78
2024/02/20 04:27:28;;;;;;;;;;;;;;;7.92;100.00;99486.69;5114513;27;20377;-80
2024/02/20 04:29:54;;;;;;;;;;;;;;;7.89;100.00;99484.75;5114863;28;19916;-78
2024/02/20 04:32:19;;;;;;;;;;;;;;;7.91;100.00;99478.81;5115245;28;19920;-80
2024/02/20 04:34:45;;;;;;;;;;;;;;;7.88;100.00;99477.66;5114797;28;20289;-81
2024/02/20 04:37:10;;;;;;;;;;;;;;;7.90;100.00;99483.53;5113247;27;20411;-79
2024/02/20 04:39:35;;;;;;;;;;;;;;;7.98;100.00;99484.31;5114497;28;20381;-80
2024/02/20 04:42:00;;;;;;;;;;;;;;;8.00;100.00;99474.47;5098927;28;19919;-79
2024/02/20 04:44:26;;;;;;;;;;;;;;;7.96;100.00;99476.44;5104241;28;19938;-80
2024/02/20 04:46:51;;;;;;;;;;;;;;;8.02;100.00;99479.56;5106353;28;19920;-79
2024/02/20 04:49:16;;;;;;;;;;;;;;;8.06;100.00;99478.38;5092692;28;19935;-78
2024/02/20 04:51:42;;;;;;;;;;;;;;;8.04;100.00;99480.72;5106424;28;19916;-80
2024/02/20 04:54:07;;;;;;;;;;;;;;;8.05;100.00;99487.81;5092401;28;19916;-79
2024/02/20 04:56:33;;;;;;;;;;;;;;;7.96;100.00;99478.41;5108470;28;21398;-79
2024/02/20 04:58:59;;;;;;;;;;;;;;;7.98;100.00;99492.56;5114036;28;19922;-79
2024/02/20 05:01:24;;;;;;;;;;;;;;;7.99;100.00;99478.41;5096107;28;19916;-79
2024/02/20 05:03:49;;;;;;;;;;;;;;;7.98;100.00;99476.03;5103287;28;19920;-78
2024/02/20 05:06:15;;;;;;;;;;;;;;;7.89;100.00;99482.00;5098876;28;20537;-80
2024/02/20 05:08:40;;;;;;;;;;;;;;;7.88;100.00;99483.16;5104341;28;19916;-78
2024/02/20 05:11:08;;;;;;;;;;;;;;;7.99;100.00;99481.16;5106867;28;19936;-79
2024/02/20 05:13:33;;;;;;;;;;;;;;;8.03;100.00;99483.88;5093670;28;20015;-80
2024/02/20 05:15:59;;;;;;;;;;;;;;;7.91;100.00;99476.84;5095151;28;20388;-80
2024/02/20 05:18:24;;;;;;;;;;;;;;;7.89;100.00;99479.25;5113645;28;19927;-78
2024/02/20 05:20:50;;;;;;;;;;;;;;;7.88;100.00;99488.69;5111831;28;19916;-80
2024/02/20 05:23:15;;;;;;;;;;;;;;;7.91;100.00;99478.81;5112066;28;19915;-78
2024/02/20 05:25:41;;;;;;;;;;;;;;;7.93;100.00;99474.50;5096931;27;20002;-79
2024/02/20 05:28:06;;;;;;;;;;;;;;;7.88;100.00;99485.13;5100087;28;19912;-80
2024/02/20 05:30:31;;;;;;;;;;;;;;;7.92;100.00;99483.94;5097940;28;19916;-78
2024/02/20 05:32:57;;;;;;;;;;;;;;;7.90;100.00;99491.78;5091954;28;19919;-79
2024/02/20 05:35:22;;;;;;;;;;;;;;;7.95;100.00;99488.66;5092967;28;19916;-79
2024/02/20 05:37:47;;;;;;;;;;;;;;;7.96;100.00;99492.16;5099600;28;20670;-79
2024/02/20 05:40:13;;;;;;;;;;;;;;;7.92;100.00;99499.66;5111499;28;19923;-77
2024/02/20 05:42:38;;;;;;;;;;;;;;;7.76;100.00;99500.13;5111879;28;20361;-80
2024/02/20 05:45:05;;;;;;;;;;;;;;;7.86;100.00;99504.78;5113103;28;19961;-79
2024/02/20 05:47:31;;;;;;;;;;;;;;;7.98;100.00;99500.81;5104071;28;19916;-76
2024/02/20 05:49:56;;;;;;;;;;;;;;;8.01;100.00;99505.53;5094147;28;19916;-79
2024/02/20 05:52:22;;;;;;;;;;;;;;;8.05;100.00;99504.31;5103907;28;19924;-79
2024/02/20 05:54:47;;;;;;;;;;;;;;;8.09;100.00;99510.59;5105378;28;19968;-80
2024/02/20 05:57:12;;;;;;;;;;;;;;;8.10;100.00;99508.63;5112944;28;19916;-78
2024/02/20 05:59:38;;;;;;;;;;;;;;;8.18;100.00;99507.41;5111457;28;19915;-80
2024/02/20 06:02:03;;;;;;;;;;;;;;;8.30;100.00;99517.19;5104501;28;19923;-78
2024/02/20 06:04:28;;;;;;;;;;;;;;;8.31;100.00;99510.53;5105006;28;19916;-80
2024/02/20 06:06:53;;;;;;;;;;;;;;;8.36;100.00;99508.13;5111980;28;20422;-80
2024/02/20 06:09:19;;;;;;;;;;;;;;;8.49;100.00;99512.00;5113097;28;19916;-80
2024/02/20 06:11:44;;;;;;;;;;;;;;;8.48;100.00;99515.16;5105923;28;20282;-80
2024/02/20 06:14:09;;;;;;;;;;;;;;;8.52;100.00;99519.44;5104643;28;19916;-79
2024/02/20 06:16:35;;;;;;;;;;;;;;;8.52;100.00;99513.94;5097646;28;19916;-80
2024/02/20 06:19:00;;;;;;;;;;;;;;;8.60;100.00;99516.66;5098231;28;19960;-80
2024/02/20 06:21:26;;;;;;;;;;;;;;;8.44;100.00;99508.88;5110522;28;20002;-80
2024/02/20 06:23:51;;;;;;;;;;;;;;;8.52;100.00;99516.69;5112691;28;20369;-79
2024/02/20 06:26:17;;;;;;;;;;;;;;;8.74;100.00;99519.31;5097273;28;20055;-79
2024/02/20 06:28:42;;;;;;;;;;;;;;;8.86;100.00;99524.34;5097878;28;20403;-80
2024/02/20 06:31:08;;;;;;;;;;;;;;;9.07;100.00;99520.66;5109226;28;20420;-78
2024/02/20 06:33:33;;;;;;;;;;;;;;;9.24;100.00;99526.00;5090763;28;19947;-78
2024/02/20 06:35:58;;;;;;;;;;;;;;;9.27;100.00;99529.94;5092055;28;19965;-80
2024/02/20 06:38:26;;;;;;;;;;;;;;;9.27;100.00;99527.19;5104071;28;19976;-80
2024/02/20 06:40:51;;;;;;;;;;;;;;;9.37;100.00;99529.84;5090644;28;19916;-79
2024/02/20 06:43:16;;;;;;;;;;;;;;;9.73;100.00;99527.50;5090626;28;19976;-79
2024/02/20 06:45:42;;;;;;;;;;;;;;;9.82;100.00;99524.28;5091796;28;20436;-78
2024/02/20 06:48:07;;;;;;;;;;;;;;;10.13;100.00;99530.59;5105176;28;19922;-79
2024/02/20 06:50:32;;;;;;;;;;;;;;;10.36;100.00;99533.50;5091663;28;19924;-78
2024/02/20 06:52:58;;;;;;;;;;;;;;;10.40;100.00;99533.44;5090795;28;19916;-78
2024/02/20 06:55:23;;;;;;;;;;;;;;;10.67;100.00;99536.25;5090401;28;20014;-77
2024/02/20 06:57:50;;;;;;;;;;;;;;;10.65;97.41;99533.91;5103762;28;20308;-79
2024/02/20 07:00:16;;;;;;;;;;;;;;;10.72;95.81;99533.00;5090547;28;20424;-77
2024/02/20 07:02:41;;;;;;;;;;;;;;;10.68;96.02;99533.03;5091609;28;20143;-79
2024/02/20 07:05:08;;;;;;;;;;;;;;;11.16;95.18;99541.00;5091505;28;19920;-77
2024/02/20 07:07:33;;;;;;;;;;;;;;;11.55;91.56;99536.81;5091330;28;19916;-78
2024/02/20 07:09:59;;;;;;;;;;;;;;;11.49;87.74;99539.28;5089901;28;19970;-78
2024/02/20 07:12:24;;;;;;;;;;;;;;;11.51;86.73;99538.88;5089345;28;19935;-77
2024/02/20 07:14:49;;;;;;;;;;;;;;;11.22;87.10;99539.31;5090006;28;19948;-78
2024/02/20 07:17:15;;;;;;;;;;;;;;;11.15;89.57;99536.66;5108375;28;19919;-79
2024/02/20 07:19:40;;;;;;;;;;;;;;;11.17;87.62;99545.34;5114613;28;19962;-77
2024/02/20 07:22:05;;;;;;;;;;;;;;;11.38;86.16;99533.94;5096441;28;20023;-77
2024/02/20 07:24:31;;;;;;;;;;;;;;;11.48;85.56;99540.47;5099680;28;19911;-77
2024/02/20 07:26:56;;;;;;;;;;;;;;;11.44;84.22;99542.53;5115840;28;19911;-77
2024/02/20 07:29:21;;;;;;;;;;;;;;;11.49;84.24;99532.97;5113759;28;19915;-79
2024/02/20 07:31:46;;;;;;;;;;;;;;;11.51;84.25;99545.19;5093155;28;19920;-79
2024/02/20 07:34:12;;;;;;;;;;;;;;;11.43;84.25;99532.66;5105937;28;19923;-78
2024/02/20 07:36:37;;;;;;;;;;;;;;;11.10;84.91;99534.38;5112176;28;19916;-78
2024/02/20 07:39:03;;;;;;;;;;;;;;;10.98;86.68;99541.28;5113796;28;20433;-79
2024/02/20 07:41:28;;;;;;;;;;;;;;;10.83;86.93;99539.16;5113370;28;19934;-78
2024/02/20 07:43:53;;;;;;;;;;;;;;;10.78;86.26;99545.16;5113202;28;20387;-77
2024/02/20 08:56:54;;;;;;;;;;;;;;;11.50;89.88;99540.84;5066291;28;19917;-77
2024/02/20 08:59:19;;;;;;;;;;;;;;;11.89;80.92;99542.91;5065060;27;19924;-78
2024/02/20 09:01:44;;;;;;;;;;;;;;;12.10;79.14;99545.28;5062983;28;19913;-78
2024/02/20 09:04:13;;;;;;;;;;;;;;;12.32;77.18;99540.06;5048086;28;19921;-79
2024/02/20 09:06:38;;;;;;;;;;;;;;;12.67;74.75;99541.28;5064820;27;19917;-78
2024/02/20 09:09:03;;;;;;;;;;;;;;;12.44;75.62;99544.97;5064584;28;19917;-76
2024/02/20 09:11:29;;;;;;;;;;;;;;;12.62;77.36;99537.03;5064859;27;20450;-77
2024/02/20 09:13:54;;;;;;;;;;;;;;;12.43;72.47;99531.53;5064379;28;19917;-77
2024/02/20 09:16:19;;;;;;;;;;;;;;;12.32;73.26;99542.84;5037339;28;20012;-79
2024/02/20 09:18:45;;;;;;;;;;;;;;;11.87;74.64;99539.81;5064117;27;19924;-77
2024/02/20 09:21:13;;;;;;;;;;;;;;;12.45;72.77;99532.69;5053298;28;19916;-77
2024/02/20 09:23:39;;;;;;;;;;;;;;;13.09;69.58;99533.97;5064654;27;20302;-78
2024/02/20 09:26:05;;;;;;;;;;;;;;;13.59;68.57;99541.88;5064986;28;19937;-78
2024/02/20 09:28:30;;;;;;;;;;;;;;;13.24;65.14;99538.00;5064357;27;19913;-77
2024/02/20 09:30:56;;;;;;;;;;;;;;;13.58;65.53;99529.22;5064110;28;19921;-76
2024/02/20 09:33:21;;;;;;;;;;;;;;;13.30;69.66;99533.50;5064053;27;19967;-78
2024/02/20 09:35:46;;;;;;;;;;;;;;;13.07;70.49;99535.66;5064448;27;19969;-77
2024/02/20 09:38:13;;;;;;;;;;;;;;;12.85;71.20;99535.34;5037177;27;20320;-78
2024/02/20 09:40:38;;;;;;;;;;;;;;;13.43;66.35;99536.34;5051944;28;19924;-78
2024/02/20 09:43:03;;;;;;;;;;;;;;;12.46;67.55;99522.38;5063483;27;19913;-77
2024/02/20 09:45:30;;;;;;;;;;;;;;;12.30;70.01;99519.56;5051505;28;20282;-77
2024/02/20 09:47:56;;;;;;;;;;;;;;;12.84;66.91;99526.25;5064061;28;19916;-77
2024/02/20 09:50:22;;;;;;;;;;;;;;;12.99;66.37;99523.94;5063968;28;19942;-78
2024/02/20 09:52:50;;;;;;;;;;;;;;;13.06;66.94;99518.22;5063001;28;19923;-77
2024/02/20 09:55:18;;;;;;;;;;;;;;;12.76;67.28;99508.22;5087993;28;19921;-78
2024/02/20 09:57:44;;;;;;;;;;;;;;;12.83;67.69;99507.28;5045429;28;19917;-79
2024/02/20 10:00:10;;;;;;;;;;;;;;;12.53;71.28;99500.06;5035586;28;19916;-79
2024/02/20 10:02:37;;;;;;;;;;;;;;;12.85;73.20;99502.06;5051316;28;19913;-78
2024/02/20 10:05:05;;;;;;;;;;;;;;;12.50;70.52;99495.34;5032509;28;19924;-78
2024/02/20 10:07:31;;;;;;;;;;;;;;;12.51;70.74;99488.59;5028983;28;19916;-77
2024/02/20 10:09:57;;;;;;;;;;;;;;;12.52;69.28;99488.19;5031346;28;20007;-77
2024/02/20 10:12:23;;;;;;;;;;;;;;;12.44;69.30;99481.22;5044592;28;20012;-74
2024/02/20 10:14:49;;;;;;;;;;;;;;;12.36;69.89;99484.56;5031850;28;19949;-78
2024/02/20 10:17:16;;;;;;;;;;;;;;;12.27;68.52;99484.38;5031580;28;19924;-76
2024/02/20 10:19:43;;;;;;;;;;;;;;;12.13;71.53;99477.94;5032820;28;19913;-77
2024/02/20 10:22:09;;;;;;;;;;;;;;;12.59;69.82;99473.38;5031747;28;19920;-77
2024/02/20 10:24:34;;;;;;;;;;;;;;;12.67;69.38;99469.22;5031448;28;19916;-77
2024/02/20 10:27:23;;;;;;;;;;;;;;;12.32;68.60;99465.25;5031310;28;19970;-76
2024/02/20 10:29:52;;;;;;;;;;;;;;;11.99;70.49;99461.63;5029813;28;20374;-76
2024/02/20 10:32:23;;;;;;;;;;;;;;;11.94;71.76;99459.34;5050746;28;19912;-76
2024/02/20 10:35:02;;;;;;;;;;;;;;;11.90;73.96;99461.41;5039123;28;19960;-76
2024/02/20 10:37:28;;;;;;;;;;;;;;;12.37;75.20;99455.66;5026105;28;19972;-77
2024/02/20 10:40:08;;;;;;;;;;;;;;;12.50;71.40;99448.22;5050954;28;19917;-79
2024/02/20 10:42:40;;;;;;;;;;;;;;;12.97;71.76;99449.47;5031090;28;20427;-78
2024/02/20 10:45:10;;;;;;;;;;;;;;;12.95;68.22;99443.59;5027977;28;19928;-77
2024/02/20 10:47:46;;;;;;;;;;;;;;;12.47;69.93;99447.13;5031109;28;19969;-77
2024/02/20 10:50:12;;;;;;;;;;;;;;;12.98;69.50;99448.25;5039309;28;19918;-76
2024/02/20 10:52:38;;;;;;;;;;;;;;;13.21;65.03;99438.19;5030730;28;19919;-78
2024/02/20 10:55:07;;;;;;;;;;;;;;;13.35;66.64;99435.03;5049754;28;19924;-78
2024/02/20 10:57:37;;;;;;;;;;;;;;;13.56;66.06;99428.94;5038673;28;19966;-77
2024/02/20 11:00:09;;;;;;;;;;;;;;;13.53;67.08;99427.03;5030434;28;20334;-78
2024/02/20 11:02:41;;;;;;;;;;;;;;;13.42;64.45;99426.53;5030846;28;20009;-77
2024/02/20 11:05:09;;;;;;;;;;;;;;;13.54;64.84;99417.47;5039347;28;20104;-75
2024/02/20 11:07:35;;;;;;;;;;;;;;;13.50;66.04;99421.56;5031015;28;19954;-74
2024/02/20 11:10:10;;;;;;;;;;;;;;;13.28;69.77;99418.56;5041497;28;19917;-76
2024/02/20 11:12:36;;;;;;;;;;;;;;;13.25;69.96;99416.69;5028830;28;19994;-74
2024/02/20 11:15:14;;;;;;;;;;;;;;;13.46;67.02;99413.31;5042486;28;19912;-75
2024/02/20 11:17:40;;;;;;;;;;;;;;;13.47;66.17;99412.13;5033254;28;19940;-76
2024/02/20 11:20:07;;;;;;;;;;;;;;;13.67;65.50;99404.41;5036390;28;19968;-76
2024/02/20 11:22:34;;;;;;;;;;;;;;;13.76;65.54;99406.53;5025203;28;19917;-75
2024/02/20 11:25:05;;;;;;;;;;;;;;;13.72;64.11;99409.44;5035697;28;19959;-74
2024/02/20 11:27:36;;;;;;;;;;;;;;;14.17;62.33;99411.25;5043913;28;19916;-75
2024/02/20 11:30:19;;;;;;;;;;;;;;;13.70;63.75;99403.53;5038743;28;20007;-75
2024/02/20 11:32:49;;;;;;;;;;;;;;;13.78;62.70;99404.88;5039135;28;19917;-78
2024/02/20 11:35:24;;;;;;;;;;;;;;;13.70;61.95;99408.28;5042587;28;19924;-75
2024/02/20 11:37:51;;;;;;;;;;;;;;;13.40;64.67;99404.75;5037988;28;19931;-77
2024/02/20 11:40:23;;;;;;;;;;;;;;;12.63;63.90;99401.97;5034097;28;19917;-76
2024/02/20 11:42:49;;;;;;;;;;;;;;;11.91;68.21;99399.28;5029048;28;19973;-75
2024/02/20 11:45:26;;;;;;;;;;;;;;;11.89;70.24;99395.38;5028879;28;20072;-76
2024/02/20 11:48:04;;;;;;;;;;;;;;;12.66;70.93;99400.34;5033344;28;19938;-74
2024/02/20 11:50:33;;;;;;;;;;;;;;;12.68;66.97;99390.38;5036723;28;19924;-75
2024/02/20 11:52:59;;;;;;;;;;;;;;;12.96;66.52;99391.66;5031799;28;19929;-76
2024/02/20 11:55:24;;;;;;;;;;;;;;;13.16;65.76;99397.88;5025694;28;19936;-74
2024/02/20 11:57:49;;;;;;;;;;;;;;;13.07;64.79;99392.16;5028682;28;19927;-77
2024/02/20 12:00:15;;;;;;;;;;;;;;;12.88;65.66;99379.97;5026357;28;19925;-76
2024/02/20 12:02:41;;;;;;;;;;;;;;;13.06;64.14;99382.28;5028121;28;20303;-75
2024/02/20 12:05:08;;;;;;;;;;;;;;;13.27;63.26;99378.16;5024377;28;19925;-78
2024/02/20 12:07:34;;;;;;;;;;;;;;;13.60;60.75;99370.50;5025989;28;20019;-75
2024/02/20 12:10:00;;;;;;;;;;;;;;;13.72;60.35;99373.31;5026936;28;20020;-75
2024/02/20 12:12:33;;;;;;;;;;;;;;;13.73;59.24;99372.09;5032495;28;19959;-77
2024/02/20 12:15:01;;;;;;;;;;;;;;;13.78;58.81;99362.44;5029205;28;19964;-75
2024/02/20 12:17:27;;;;;;;;;;;;;;;13.79;58.65;99361.22;5027938;28;19925;-75
2024/02/20 12:20:05;;;;;;;;;;;;;;;13.78;59.47;99357.66;5027150;28;19946;-77
2024/02/20 12:22:31;;;;;;;;;;;;;;;13.69;58.92;99357.53;5025645;28;19925;-75
2024/02/20 12:25:07;;;;;;;;;;;;;;;13.88;57.70;99350.22;5026328;28;20389;-75
2024/02/20 12:27:33;;;;;;;;;;;;;;;14.08;57.07;99347.25;5028535;28;20652;-74
2024/02/20 12:29:58;;;;;;;;;;;;;;;14.08;55.94;99344.47;5028166;28;20003;-75
2024/02/20 12:32:24;;;;;;;;;;;;;;;14.14;56.72;99348.25;5027797;28;20017;-75
2024/02/20 12:34:50;;;;;;;;;;;;;;;14.41;55.61;99345.03;5030122;28;19920;-75
2024/02/20 12:37:15;;;;;;;;;;;;;;;14.75;53.74;99335.97;5028589;28;19921;-74
2024/02/20 12:39:40;;;;;;;;;;;;;;;14.89;53.22;99336.25;5029463;28;19925;-75
2024/02/20 12:42:06;;;;;;;;;;;;;;;15.02;52.71;99339.75;5028679;28;20504;-75
2024/02/20 12:44:31;;;;;;;;;;;;;;;14.98;50.52;99341.91;5029117;28;19928;-74
2024/02/20 12:46:56;;;;;;;;;;;;;;;13.96;52.67;99339.69;5030019;28;20468;-74
2024/02/20 12:49:22;;;;;;;;;;;;;;;13.33;52.99;99332.78;5027389;28;19929;-75
2024/02/20 12:51:47;;;;;;;;;;;;;;;13.18;51.85;99339.97;5028619;28;19928;-77
2024/02/20 12:54:12;;;;;;;;;;;;;;;13.34;52.23;99328.03;5028235;28;20386;-75
2024/02/20 12:56:38;;;;;;;;;;;;;;;13.43;53.80;99334.50;5027160;28;20012;-77
2024/02/20 12:59:03;;;;;;;;;;;;;;;13.45;51.55;99332.03;5027851;28;20390;-75
2024/02/20 13:01:28;;;;;;;;;;;;;;;13.33;50.91;99324.47;5026370;28;19917;-74
2024/02/20 13:03:54;;;;;;;;;;;;;;;13.29;49.78;99334.91;5025493;28;20385;-75
2024/02/20 13:06:19;;;;;;;;;;;;;;;13.14;50.30;99322.63;5027922;28;19921;-76
2024/02/20 13:08:44;;;;;;;;;;;;;;;13.37;51.41;99318.81;5027352;28;21262;-75
2024/02/20 13:11:10;;;;;;;;;;;;;;;13.28;48.42;99327.00;5022819;28;19939;-76
2024/02/20 13:13:35;;;;;;;;;;;;;;;13.52;48.00;99319.97;5025758;28;20457;-76
2024/02/20 13:16:02;;;;;;;;;;;;;;;13.63;47.41;99317.63;5020658;28;19936;-76
2024/02/20 13:18:27;;;;;;;;;;;;;;;13.69;48.47;99318.66;5028467;28;19921;-75
2024/02/20 13:20:52;;;;;;;;;;;;;;;13.75;46.62;99322.44;5030381;28;19917;-80
2024/02/20 13:23:19;;;;;;;;;;;;;;;13.26;46.08;99316.34;5030777;28;19913;-77
2024/02/20 13:25:46;;;;;;;;;;;;;;;12.99;45.82;99321.44;5028942;28;19970;-78
2024/02/20 13:28:14;;;;;;;;;;;;;;;12.57;47.22;99312.25;5028761;28;19925;-78
2024/02/20 13:30:39;;;;;;;;;;;;;;;12.66;46.12;99322.72;5028787;28;20617;-79
2024/02/20 13:33:04;;;;;;;;;;;;;;;12.84;46.32;99318.25;5029738;28;19962;-78
2024/02/20 13:35:30;;;;;;;;;;;;;;;12.79;48.02;99313.25;5029545;28;19913;-78
2024/02/20 13:37:55;;;;;;;;;;;;;;;12.70;49.81;99310.31;5013259;28;19985;-78
2024/02/20 13:40:20;;;;;;;;;;;;;;;12.45;50.46;99310.19;5013269;28;19917;-79
2024/02/20 13:42:46;;;;;;;;;;;;;;;12.29;51.32;99312.97;5029330;28;20469;-79
2024/02/20 13:45:11;;;;;;;;;;;;;;;12.23;51.99;99315.47;5030350;28;19982;-79
2024/02/20 13:47:36;;;;;;;;;;;;;;;12.02;53.18;99322.28;5031052;28;19925;-78
2024/02/20 13:50:03;;;;;;;;;;;;;;;11.66;53.53;99316.72;5031044;28;19915;-79